PWSweather.com
Personal Weather Stations
Station Observations
LOBIOS
Galicia, LobiosES

GaliciaLobiosES

Lat: 41.895, Lon: -8.091667

Elevation: 1597

Station Type: Automática/Davis Vantage Pro2 Plus

www.meteolobios.es

High Low Average
Temperature 50.5°F10.3°C 34.1°F1.2°C 42.2°F5.7°C
Dew Point 48.3°F9.1°C 32.5°F0.3°C 40.4°F4.7°C
Winds 5.8 mph 9.3 kmh Calm Calm 1.0 mph SE1.6 kmh SE
Wind Gusts 9.2 mph14.8 kmh -- 2.0 mph3.2 kmh
Humidity 96% 90% 93%
Pressure 30.53 in1033.9 mb 30.42 in1030.1 mb -
Precipitation 0.01 in0.3 mm - -
Hour Temp Dew Point Humidity Winds Wind Gusts Pressure Precip Precip Rate Daily Precip Total
12:00 AM 39.5°F4.2°C 36.8°F2.7°C 90% 1.1 mph NE1.8 kmh NE 2.3 mph3.7 kmh 30.44 in1030.8 mb - 0.00 in0.0 mm 0.00 in0.0 mm
12:10 AM 39.2°F4.0°C 36.5°F2.5°C 90% 3.5 mph NE5.6 kmh NE 3.5 mph5.6 kmh 30.44 in1030.8 mb - 0.00 in0.0 mm 0.00 in0.0 mm
12:20 AM 38.9°F3.8°C 36.2°F2.3°C 90% 3.5 mph NE5.6 kmh NE 3.5 mph5.6 kmh 30.45 in1031.2 mb - 0.00 in0.0 mm 0.00 in0.0 mm
12:30 AM 38.7°F3.7°C 36.0°F2.2°C 90% 1.1 mph NE1.8 kmh NE 2.3 mph3.7 kmh 30.45 in1031.2 mb - 0.00 in0.0 mm 0.00 in0.0 mm
12:40 AM 38.5°F3.6°C 35.8°F2.1°C 90% Calm Calm -- 30.44 in1030.8 mb - 0.00 in0.0 mm 0.00 in0.0 mm
12:50 AM 38.3°F3.5°C 35.9°F2.2°C 91% Calm Calm -- 30.44 in1030.8 mb - 0.00 in0.0 mm 0.00 in0.0 mm
01:00 AM 38.2°F3.4°C 35.8°F2.1°C 91% Calm Calm -- 30.44 in1030.8 mb - 0.00 in0.0 mm 0.00 in0.0 mm
01:10 AM 38.0°F3.3°C 35.6°F2.0°C 91% Calm Calm -- 30.44 in1030.8 mb - 0.00 in0.0 mm 0.00 in0.0 mm
01:20 AM 37.9°F3.3°C 35.5°F1.9°C 91% Calm Calm -- 30.43 in1030.5 mb - 0.00 in0.0 mm 0.00 in0.0 mm
01:30 AM 37.7°F3.2°C 35.3°F1.8°C 91% Calm Calm -- 30.43 in1030.5 mb - 0.00 in0.0 mm 0.00 in0.0 mm
01:40 AM 37.7°F3.2°C 35.6°F2.0°C 92% Calm Calm -- 30.43 in1030.5 mb - 0.00 in0.0 mm 0.00 in0.0 mm
01:50 AM 37.7°F3.2°C 35.6°F2.0°C 92% Calm Calm 1.1 mph1.8 kmh 30.43 in1030.5 mb - 0.00 in0.0 mm 0.00 in0.0 mm
02:00 AM 37.5°F3.1°C 35.4°F1.9°C 92% Calm Calm -- 30.43 in1030.5 mb - 0.00 in0.0 mm 0.00 in0.0 mm
02:10 AM 37.3°F2.9°C 35.1°F1.7°C 92% Calm Calm -- 30.42 in1030.1 mb - 0.00 in0.0 mm 0.00 in0.0 mm
02:20 AM 37.0°F2.8°C 34.9°F1.6°C 92% 1.1 mph NE1.8 kmh NE 2.3 mph3.7 kmh 30.42 in1030.1 mb - 0.00 in0.0 mm 0.00 in0.0 mm
02:30 AM 36.9°F2.7°C 34.8°F1.6°C 92% 2.3 mph NE3.7 kmh NE 2.3 mph3.7 kmh 30.43 in1030.5 mb - 0.00 in0.0 mm 0.00 in0.0 mm
02:40 AM 36.7°F2.6°C 34.6°F1.4°C 92% 2.3 mph NE3.7 kmh NE 4.6 mph7.4 kmh 30.43 in1030.5 mb - 0.00 in0.0 mm 0.00 in0.0 mm
02:50 AM 36.5°F2.5°C 34.4°F1.3°C 92% Calm Calm 1.1 mph1.8 kmh 30.43 in1030.5 mb - 0.01 in0.3 mm 0.01 in0.3 mm
03:00 AM 36.7°F2.6°C 34.9°F1.6°C 93% Calm Calm -- 30.43 in1030.5 mb - 0.00 in0.0 mm 0.01 in0.3 mm
03:10 AM 36.7°F2.6°C 34.9°F1.6°C 93% Calm Calm -- 30.43 in1030.5 mb - 0.00 in0.0 mm 0.01 in0.3 mm
03:20 AM 36.5°F2.5°C 34.4°F1.3°C 92% Calm Calm -- 30.42 in1030.1 mb - 0.00 in0.0 mm 0.01 in0.3 mm
03:30 AM 36.4°F2.4°C 34.6°F1.4°C 93% 1.1 mph NE1.8 kmh NE 3.5 mph5.6 kmh 30.43 in1030.5 mb - 0.00 in0.0 mm 0.01 in0.3 mm
03:40 AM 36.2°F2.3°C 34.4°F1.3°C 93% Calm Calm -- 30.42 in1030.1 mb - 0.00 in0.0 mm 0.01 in0.3 mm
03:50 AM 36.0°F2.2°C 34.2°F1.2°C 93% 2.3 mph NE3.7 kmh NE 2.3 mph3.7 kmh 30.43 in1030.5 mb - 0.00 in0.0 mm 0.01 in0.3 mm
04:00 AM 35.8°F2.1°C 33.9°F1.1°C 93% 1.1 mph NE1.8 kmh NE 2.3 mph3.7 kmh 30.43 in1030.5 mb - 0.00 in0.0 mm 0.01 in0.3 mm
04:10 AM 35.6°F2.0°C 33.8°F1.0°C 93% Calm Calm -- 30.43 in1030.5 mb - 0.00 in0.0 mm 0.01 in0.3 mm
04:20 AM 35.4°F1.9°C 33.6°F0.9°C 93% Calm Calm -- 30.43 in1030.5 mb - 0.00 in0.0 mm 0.01 in0.3 mm
04:30 AM 35.3°F1.8°C 33.5°F0.8°C 93% Calm Calm -- 30.43 in1030.5 mb - 0.00 in0.0 mm 0.01 in0.3 mm
04:40 AM 35.3°F1.8°C 33.5°F0.8°C 93% Calm Calm -- 30.43 in1030.5 mb - 0.00 in0.0 mm 0.01 in0.3 mm
04:50 AM 35.4°F1.9°C 33.6°F0.9°C 93% Calm Calm -- 30.43 in1030.5 mb - 0.00 in0.0 mm 0.01 in0.3 mm
05:00 AM 35.3°F1.8°C 33.5°F0.8°C 93% 1.1 mph NE1.8 kmh NE 2.3 mph3.7 kmh 30.42 in1030.1 mb - 0.00 in0.0 mm 0.01 in0.3 mm
05:10 AM 35.1°F1.7°C 33.3°F0.7°C 93% Calm Calm -- 30.42 in1030.1 mb - 0.00 in0.0 mm 0.01 in0.3 mm
05:20 AM 34.8°F1.6°C 33.0°F0.6°C 93% Calm Calm -- 30.42 in1030.1 mb - 0.00 in0.0 mm 0.01 in0.3 mm
05:30 AM 34.7°F1.5°C 32.9°F0.5°C 93% Calm Calm -- 30.42 in1030.1 mb - 0.00 in0.0 mm 0.01 in0.3 mm
05:40 AM 34.5°F1.4°C 32.7°F0.4°C 93% Calm Calm -- 30.42 in1030.1 mb - 0.00 in0.0 mm 0.01 in0.3 mm
05:50 AM 34.3°F1.3°C 32.5°F0.3°C 93% Calm Calm -- 30.42 in1030.1 mb - 0.00 in0.0 mm 0.01 in0.3 mm
06:00 AM 34.3°F1.3°C 32.7°F0.4°C 94% Calm Calm -- 30.42 in1030.1 mb - 0.00 in0.0 mm 0.01 in0.3 mm
06:10 AM 34.5°F1.4°C 33.0°F0.6°C 94% Calm Calm -- 30.42 in1030.1 mb - 0.00 in0.0 mm 0.01 in0.3 mm
06:20 AM 34.5°F1.4°C 32.9°F0.5°C 94% Calm Calm -- 30.43 in1030.5 mb - 0.00 in0.0 mm 0.01 in0.3 mm
06:30 AM 34.3°F1.3°C 32.8°F0.4°C 94% Calm Calm -- 30.42 in1030.1 mb - 0.00 in0.0 mm 0.01 in0.3 mm
06:40 AM 34.4°F1.3°C 32.9°F0.5°C 94% Calm Calm -- 30.42 in1030.1 mb - 0.00 in0.0 mm 0.01 in0.3 mm
06:50 AM 34.5°F1.4°C 33.0°F0.6°C 94% Calm Calm -- 30.43 in1030.5 mb - 0.00 in0.0 mm 0.01 in0.3 mm
07:00 AM 34.4°F1.3°C 32.9°F0.5°C 94% Calm Calm -- 30.42 in1030.1 mb - 0.00 in0.0 mm 0.01 in0.3 mm
07:10 AM 34.7°F1.5°C 33.1°F0.6°C 94% Calm Calm -- 30.42 in1030.1 mb - 0.00 in0.0 mm 0.01 in0.3 mm
07:20 AM 34.7°F1.5°C 33.2°F0.7°C 94% Calm Calm -- 30.43 in1030.5 mb - 0.00 in0.0 mm 0.01 in0.3 mm
07:30 AM 34.4°F1.3°C 32.9°F0.5°C 94% 2.3 mph NE3.7 kmh NE 2.3 mph3.7 kmh 30.43 in1030.5 mb - 0.00 in0.0 mm 0.01 in0.3 mm
07:40 AM 34.3°F1.3°C 32.8°F0.4°C 94% Calm Calm -- 30.43 in1030.5 mb - 0.00 in0.0 mm 0.01 in0.3 mm
07:50 AM 34.3°F1.3°C 32.7°F0.4°C 94% 2.3 mph NE3.7 kmh NE 3.5 mph5.6 kmh 30.43 in1030.5 mb - 0.00 in0.0 mm 0.01 in0.3 mm
08:00 AM 34.2°F1.2°C 32.6°F0.3°C 94% 4.6 mph NE7.4 kmh NE 5.8 mph9.3 kmh 30.44 in1030.8 mb - 0.00 in0.0 mm 0.01 in0.3 mm
08:10 AM 34.1°F1.2°C 32.6°F0.3°C 94% 1.1 mph NE1.8 kmh NE 2.3 mph3.7 kmh 30.44 in1030.8 mb - 0.00 in0.0 mm 0.01 in0.3 mm
08:20 AM 34.1°F1.2°C 32.6°F0.3°C 94% Calm Calm -- 30.45 in1031.2 mb - 0.00 in0.0 mm 0.01 in0.3 mm
08:30 AM 34.2°F1.2°C 32.6°F0.3°C 94% Calm Calm -- 30.45 in1031.2 mb - 0.00 in0.0 mm 0.01 in0.3 mm
08:40 AM 34.3°F1.3°C 32.8°F0.4°C 94% Calm Calm -- 30.46 in1031.5 mb - 0.00 in0.0 mm 0.01 in0.3 mm
08:50 AM 35.0°F1.7°C 33.7°F0.9°C 95% Calm Calm -- 30.46 in1031.5 mb - 0.00 in0.0 mm 0.01 in0.3 mm
09:00 AM 35.6°F2.0°C 34.3°F1.3°C 95% Calm Calm -- 30.47 in1031.8 mb - 0.00 in0.0 mm 0.01 in0.3 mm
09:10 AM 36.0°F2.2°C 34.7°F1.5°C 95% Calm Calm -- 30.47 in1031.8 mb - 0.00 in0.0 mm 0.01 in0.3 mm
09:20 AM 35.9°F2.2°C 34.3°F1.3°C 94% Calm Calm -- 30.48 in1032.2 mb - 0.00 in0.0 mm 0.01 in0.3 mm
09:30 AM 35.7°F2.1°C 34.1°F1.2°C 94% Calm Calm -- 30.48 in1032.2 mb - 0.00 in0.0 mm 0.01 in0.3 mm
09:40 AM 35.6°F2.0°C 34.3°F1.3°C 95% Calm Calm -- 30.48 in1032.2 mb - 0.00 in0.0 mm 0.01 in0.3 mm
09:50 AM 35.6°F2.0°C 34.3°F1.3°C 95% 1.1 mph NE1.8 kmh NE 2.3 mph3.7 kmh 30.48 in1032.2 mb - 0.00 in0.0 mm 0.01 in0.3 mm
10:00 AM 35.7°F2.1°C 34.4°F1.3°C 95% 2.3 mph NE3.7 kmh NE 3.5 mph5.6 kmh 30.49 in1032.5 mb - 0.00 in0.0 mm 0.01 in0.3 mm
10:10 AM 35.7°F2.1°C 34.4°F1.3°C 95% 1.1 mph NE1.8 kmh NE 3.5 mph5.6 kmh 30.49 in1032.5 mb - 0.00 in0.0 mm 0.01 in0.3 mm
10:20 AM 35.7°F2.1°C 34.4°F1.3°C 95% Calm Calm -- 30.49 in1032.5 mb - 0.00 in0.0 mm 0.01 in0.3 mm
10:30 AM 36.0°F2.2°C 34.7°F1.5°C 95% 1.1 mph NE1.8 kmh NE 3.5 mph5.6 kmh 30.50 in1032.8 mb - 0.00 in0.0 mm 0.01 in0.3 mm
10:40 AM 36.3°F2.4°C 35.0°F1.7°C 95% Calm Calm -- 30.49 in1032.5 mb - 0.00 in0.0 mm 0.01 in0.3 mm
10:50 AM 36.7°F2.6°C 35.4°F1.9°C 95% Calm Calm -- 30.50 in1032.8 mb - 0.00 in0.0 mm 0.01 in0.3 mm
11:00 AM 37.1°F2.8°C 35.8°F2.1°C 95% 2.3 mph NE3.7 kmh NE 3.5 mph5.6 kmh 30.50 in1032.8 mb - 0.00 in0.0 mm 0.01 in0.3 mm
11:10 AM 37.5°F3.1°C 36.2°F2.3°C 95% Calm Calm -- 30.50 in1032.8 mb - 0.00 in0.0 mm 0.01 in0.3 mm
11:20 AM 37.9°F3.3°C 36.6°F2.6°C 95% Calm Calm -- 30.50 in1032.8 mb - 0.00 in0.0 mm 0.01 in0.3 mm
11:30 AM 38.5°F3.6°C 37.2°F2.9°C 95% Calm Calm -- 30.50 in1032.8 mb - 0.00 in0.0 mm 0.01 in0.3 mm
11:40 AM 40.9°F4.9°C 39.9°F4.4°C 96% Calm Calm -- 30.50 in1032.8 mb - 0.00 in0.0 mm 0.01 in0.3 mm
11:50 AM 41.9°F5.5°C 40.6°F4.8°C 95% Calm Calm -- 30.50 in1032.8 mb - 0.00 in0.0 mm 0.01 in0.3 mm
12:00 PM 42.6°F5.9°C 41.3°F5.2°C 95% 1.1 mph NE1.8 kmh NE 2.3 mph3.7 kmh 30.50 in1032.8 mb - 0.00 in0.0 mm 0.01 in0.3 mm
12:10 PM 42.5°F5.8°C 41.2°F5.1°C 95% 3.5 mph NE5.6 kmh NE 4.6 mph7.4 kmh 30.50 in1032.8 mb - 0.00 in0.0 mm 0.01 in0.3 mm
12:20 PM 43.4°F6.3°C 42.0°F5.6°C 95% Calm Calm -- 30.50 in1032.8 mb - 0.00 in0.0 mm 0.01 in0.3 mm
12:30 PM 44.7°F7.1°C 43.3°F6.3°C 95% 1.1 mph ENE1.8 kmh ENE 2.3 mph3.7 kmh 30.50 in1032.8 mb - 0.00 in0.0 mm 0.01 in0.3 mm
12:40 PM 45.6°F7.6°C 44.3°F6.8°C 95% Calm Calm -- 30.50 in1032.8 mb - 0.00 in0.0 mm 0.01 in0.3 mm
12:50 PM 44.9°F7.2°C 43.0°F6.1°C 93% Calm Calm -- 30.49 in1032.5 mb - 0.00 in0.0 mm 0.01 in0.3 mm
01:00 PM 45.1°F7.3°C 43.5°F6.4°C 94% 2.3 mph WSW3.7 kmh WSW 5.8 mph9.3 kmh 30.49 in1032.5 mb - 0.00 in0.0 mm 0.01 in0.3 mm
01:10 PM 46.3°F7.9°C 44.7°F7.1°C 94% Calm Calm 5.8 mph9.3 kmh 30.48 in1032.2 mb - 0.00 in0.0 mm 0.01 in0.3 mm
01:20 PM 47.0°F8.3°C 45.4°F7.4°C 94% Calm Calm 2.3 mph3.7 kmh 30.48 in1032.2 mb - 0.00 in0.0 mm 0.01 in0.3 mm
01:30 PM 47.5°F8.6°C 45.6°F7.6°C 93% 2.3 mph WSW3.7 kmh WSW 4.6 mph7.4 kmh 30.48 in1032.2 mb - 0.00 in0.0 mm 0.01 in0.3 mm
01:40 PM 47.8°F8.8°C 45.9°F7.7°C 93% 3.5 mph WSW5.6 kmh WSW 5.8 mph9.3 kmh 30.48 in1032.2 mb - 0.00 in0.0 mm 0.01 in0.3 mm
01:50 PM 48.4°F9.1°C 46.5°F8.1°C 93% 2.3 mph SSW3.7 kmh SSW 3.5 mph5.6 kmh 30.48 in1032.2 mb - 0.00 in0.0 mm 0.01 in0.3 mm
02:00 PM 48.9°F9.4°C 47.0°F8.3°C 93% 3.5 mph WSW5.6 kmh WSW 5.8 mph9.3 kmh 30.47 in1031.8 mb - 0.00 in0.0 mm 0.01 in0.3 mm
02:10 PM 49.3°F9.6°C 47.4°F8.6°C 93% 2.3 mph W3.7 kmh W 3.5 mph5.6 kmh 30.46 in1031.5 mb - 0.00 in0.0 mm 0.01 in0.3 mm
02:20 PM 49.7°F9.8°C 47.5°F8.6°C 92% 4.6 mph SW7.4 kmh SW 6.9 mph11.1 kmh 30.46 in1031.5 mb - 0.00 in0.0 mm 0.01 in0.3 mm
02:30 PM 50.1°F10.1°C 47.9°F8.8°C 92% 2.3 mph WSW3.7 kmh WSW 4.6 mph7.4 kmh 30.46 in1031.5 mb - 0.00 in0.0 mm 0.01 in0.3 mm
02:40 PM 50.3°F10.2°C 48.1°F8.9°C 92% 3.5 mph S5.6 kmh S 3.5 mph5.6 kmh 30.46 in1031.5 mb - 0.00 in0.0 mm 0.01 in0.3 mm
02:50 PM 50.5°F10.3°C 48.3°F9.1°C 92% 1.1 mph S1.8 kmh S 2.3 mph3.7 kmh 30.45 in1031.2 mb - 0.00 in0.0 mm 0.01 in0.3 mm
03:00 PM 50.5°F10.3°C 48.0°F8.9°C 91% 2.3 mph SW3.7 kmh SW 5.8 mph9.3 kmh 30.45 in1031.2 mb - 0.00 in0.0 mm 0.01 in0.3 mm
03:10 PM 50.4°F10.2°C 47.9°F8.8°C 91% 1.1 mph ENE1.8 kmh ENE 2.3 mph3.7 kmh 30.45 in1031.2 mb - 0.00 in0.0 mm 0.01 in0.3 mm
03:20 PM 50.4°F10.2°C 47.9°F8.8°C 91% 2.3 mph SW3.7 kmh SW 9.2 mph14.8 kmh 30.45 in1031.2 mb - 0.00 in0.0 mm 0.01 in0.3 mm
03:30 PM 50.2°F10.1°C 47.7°F8.7°C 91% 2.3 mph WSW3.7 kmh WSW 3.5 mph5.6 kmh 30.45 in1031.2 mb - 0.00 in0.0 mm 0.01 in0.3 mm
03:40 PM 50.2°F10.1°C 47.7°F8.7°C 91% 1.1 mph WSW1.8 kmh WSW 3.5 mph5.6 kmh 30.45 in1031.2 mb - 0.00 in0.0 mm 0.01 in0.3 mm
03:50 PM 50.1°F10.1°C 47.6°F8.7°C 91% 2.3 mph WNW3.7 kmh WNW 3.5 mph5.6 kmh 30.45 in1031.2 mb - 0.00 in0.0 mm 0.01 in0.3 mm
04:00 PM 49.9°F9.9°C 47.4°F8.6°C 91% 3.5 mph W5.6 kmh W 9.2 mph14.8 kmh 30.46 in1031.5 mb - 0.00 in0.0 mm 0.01 in0.3 mm
04:10 PM 49.6°F9.8°C 47.4°F8.6°C 92% 1.1 mph SW1.8 kmh SW 2.3 mph3.7 kmh 30.46 in1031.5 mb - 0.00 in0.0 mm 0.01 in0.3 mm
04:20 PM 49.7°F9.8°C 47.5°F8.6°C 92% 2.3 mph SSW3.7 kmh SSW 4.6 mph7.4 kmh 30.46 in1031.5 mb - 0.00 in0.0 mm 0.01 in0.3 mm
04:30 PM 49.6°F9.8°C 47.4°F8.6°C 92% 4.6 mph WSW7.4 kmh WSW 8.1 mph13.0 kmh 30.47 in1031.8 mb - 0.00 in0.0 mm 0.01 in0.3 mm
04:40 PM 49.6°F9.8°C 47.4°F8.6°C 92% 1.1 mph NE1.8 kmh NE 2.3 mph3.7 kmh 30.47 in1031.8 mb - 0.00 in0.0 mm 0.01 in0.3 mm
04:50 PM 49.6°F9.8°C 47.4°F8.6°C 92% 3.5 mph SW5.6 kmh SW 5.8 mph9.3 kmh 30.47 in1031.8 mb - 0.00 in0.0 mm 0.01 in0.3 mm
05:00 PM 49.7°F9.8°C 47.8°F8.8°C 93% Calm Calm 4.6 mph7.4 kmh 30.47 in1031.8 mb - 0.00 in0.0 mm 0.01 in0.3 mm
05:10 PM 49.6°F9.8°C 47.4°F8.6°C 92% Calm Calm 2.3 mph3.7 kmh 30.47 in1031.8 mb - 0.00 in0.0 mm 0.01 in0.3 mm
05:20 PM 49.6°F9.8°C 47.3°F8.5°C 92% 1.1 mph SW1.8 kmh SW 2.3 mph3.7 kmh 30.47 in1031.8 mb - 0.00 in0.0 mm 0.01 in0.3 mm
05:30 PM 49.4°F9.7°C 47.2°F8.4°C 92% 2.3 mph WSW3.7 kmh WSW 4.6 mph7.4 kmh 30.48 in1032.2 mb - 0.00 in0.0 mm 0.01 in0.3 mm
05:40 PM 49.3°F9.6°C 47.4°F8.6°C 93% 2.3 mph SW3.7 kmh SW 4.6 mph7.4 kmh 30.48 in1032.2 mb - 0.00 in0.0 mm 0.01 in0.3 mm
05:50 PM 49.3°F9.6°C 47.3°F8.5°C 93% 2.3 mph WSW3.7 kmh WSW 3.5 mph5.6 kmh 30.48 in1032.2 mb - 0.00 in0.0 mm 0.01 in0.3 mm
06:00 PM 49.2°F9.6°C 47.2°F8.4°C 93% 3.5 mph SW5.6 kmh SW 6.9 mph11.1 kmh 30.48 in1032.2 mb - 0.00 in0.0 mm 0.01 in0.3 mm
06:10 PM 49.0°F9.4°C 47.1°F8.4°C 93% 3.5 mph SW5.6 kmh SW 5.8 mph9.3 kmh 30.49 in1032.5 mb - 0.00 in0.0 mm 0.01 in0.3 mm
06:20 PM 48.8°F9.3°C 46.9°F8.3°C 93% 1.1 mph WSW1.8 kmh WSW 2.3 mph3.7 kmh 30.49 in1032.5 mb - 0.00 in0.0 mm 0.01 in0.3 mm
06:30 PM 48.7°F9.3°C 46.8°F8.2°C 93% 1.1 mph SW1.8 kmh SW 3.5 mph5.6 kmh 30.49 in1032.5 mb - 0.00 in0.0 mm 0.01 in0.3 mm
06:40 PM 48.5°F9.2°C 46.6°F8.1°C 93% 2.3 mph SW3.7 kmh SW 2.3 mph3.7 kmh 30.50 in1032.8 mb - 0.00 in0.0 mm 0.01 in0.3 mm
06:50 PM 48.4°F9.1°C 46.5°F8.1°C 93% 5.8 mph SSW9.3 kmh SSW 8.1 mph13.0 kmh 30.49 in1032.5 mb - 0.00 in0.0 mm 0.01 in0.3 mm
07:00 PM 48.2°F9.0°C 46.3°F7.9°C 93% 4.6 mph SW7.4 kmh SW 5.8 mph9.3 kmh 30.50 in1032.8 mb - 0.00 in0.0 mm 0.01 in0.3 mm
07:10 PM 48.0°F8.9°C 46.1°F7.8°C 93% 2.3 mph SW3.7 kmh SW 4.6 mph7.4 kmh 30.50 in1032.8 mb - 0.00 in0.0 mm 0.01 in0.3 mm
07:20 PM 48.0°F8.9°C 46.1°F7.8°C 93% 2.3 mph WSW3.7 kmh WSW 4.6 mph7.4 kmh 30.51 in1033.2 mb - 0.00 in0.0 mm 0.01 in0.3 mm
07:30 PM 48.1°F8.9°C 46.2°F7.9°C 93% 1.1 mph WSW1.8 kmh WSW 4.6 mph7.4 kmh 30.51 in1033.2 mb - 0.00 in0.0 mm 0.01 in0.3 mm
07:40 PM 48.1°F8.9°C 46.2°F7.9°C 93% 4.6 mph WSW7.4 kmh WSW 5.8 mph9.3 kmh 30.51 in1033.2 mb - 0.00 in0.0 mm 0.01 in0.3 mm
07:50 PM 48.1°F8.9°C 46.2°F7.9°C 93% 2.3 mph SW3.7 kmh SW 5.8 mph9.3 kmh 30.52 in1033.5 mb - 0.00 in0.0 mm 0.01 in0.3 mm
08:00 PM 48.1°F8.9°C 46.5°F8.1°C 94% 2.3 mph WSW3.7 kmh WSW 3.5 mph5.6 kmh 30.52 in1033.5 mb - 0.00 in0.0 mm 0.01 in0.3 mm
08:10 PM 48.1°F8.9°C 46.5°F8.1°C 94% 3.5 mph WSW5.6 kmh WSW 4.6 mph7.4 kmh 30.52 in1033.5 mb - 0.00 in0.0 mm 0.01 in0.3 mm
08:20 PM 48.1°F8.9°C 46.5°F8.1°C 94% 2.3 mph WSW3.7 kmh WSW 4.6 mph7.4 kmh 30.52 in1033.5 mb - 0.00 in0.0 mm 0.01 in0.3 mm
08:30 PM 48.0°F8.9°C 46.4°F8.0°C 94% 2.3 mph SW3.7 kmh SW 3.5 mph5.6 kmh 30.52 in1033.5 mb - 0.00 in0.0 mm 0.01 in0.3 mm
08:40 PM 48.0°F8.9°C 46.4°F8.0°C 94% 2.3 mph SW3.7 kmh SW 3.5 mph5.6 kmh 30.52 in1033.5 mb - 0.00 in0.0 mm 0.01 in0.3 mm
08:50 PM 47.9°F8.8°C 46.3°F7.9°C 94% Calm Calm -- 30.52 in1033.5 mb - 0.00 in0.0 mm 0.01 in0.3 mm
09:00 PM 47.9°F8.8°C 46.3°F7.9°C 94% 1.1 mph W1.8 kmh W 3.5 mph5.6 kmh 30.52 in1033.5 mb - 0.00 in0.0 mm 0.01 in0.3 mm
09:10 PM 48.0°F8.9°C 46.3°F7.9°C 94% Calm Calm 1.1 mph1.8 kmh 30.52 in1033.5 mb - 0.00 in0.0 mm 0.01 in0.3 mm
09:20 PM 47.9°F8.8°C 46.3°F7.9°C 94% Calm Calm -- 30.52 in1033.5 mb - 0.00 in0.0 mm 0.01 in0.3 mm
09:30 PM 47.8°F8.8°C 46.1°F7.8°C 94% Calm Calm -- 30.52 in1033.5 mb - 0.00 in0.0 mm 0.01 in0.3 mm
09:40 PM 47.7°F8.7°C 46.1°F7.8°C 94% Calm Calm -- 30.52 in1033.5 mb - 0.00 in0.0 mm 0.01 in0.3 mm
09:50 PM 47.7°F8.7°C 46.1°F7.8°C 94% Calm Calm -- 30.52 in1033.5 mb - 0.00 in0.0 mm 0.01 in0.3 mm
10:00 PM 47.7°F8.7°C 46.1°F7.8°C 94% Calm Calm -- 30.53 in1033.9 mb - 0.00 in0.0 mm 0.01 in0.3 mm
10:10 PM 47.7°F8.7°C 46.1°F7.8°C 94% 2.3 mph SW3.7 kmh SW 4.6 mph7.4 kmh 30.52 in1033.5 mb - 0.00 in0.0 mm 0.01 in0.3 mm
10:20 PM 47.7°F8.7°C 46.1°F7.8°C 94% Calm Calm -- 30.53 in1033.9 mb - 0.00 in0.0 mm 0.01 in0.3 mm
10:30 PM 47.7°F8.7°C 46.1°F7.8°C 94% Calm Calm -- 30.53 in1033.9 mb - 0.00 in0.0 mm 0.01 in0.3 mm
10:40 PM 47.8°F8.8°C 46.4°F8.0°C 95% 1.1 mph SW1.8 kmh SW 1.1 mph1.8 kmh 30.53 in1033.9 mb - 0.00 in0.0 mm 0.01 in0.3 mm
10:50 PM 47.9°F8.8°C 46.6°F8.1°C 95% 3.5 mph SW5.6 kmh SW 6.9 mph11.1 kmh 30.53 in1033.9 mb - 0.00 in0.0 mm 0.01 in0.3 mm
11:00 PM 48.0°F8.9°C 46.6°F8.1°C 95% 1.1 mph WSW1.8 kmh WSW 2.3 mph3.7 kmh 30.53 in1033.9 mb - 0.00 in0.0 mm 0.01 in0.3 mm
11:10 PM 48.0°F8.9°C 46.6°F8.1°C 95% 2.3 mph SW3.7 kmh SW 3.5 mph5.6 kmh 30.53 in1033.9 mb - 0.00 in0.0 mm 0.01 in0.3 mm
11:20 PM 48.0°F8.9°C 46.6°F8.1°C 95% Calm Calm 2.3 mph3.7 kmh 30.52 in1033.5 mb - 0.00 in0.0 mm 0.01 in0.3 mm
11:30 PM 48.0°F8.9°C 46.6°F8.1°C 95% 1.1 mph SW1.8 kmh SW 3.5 mph5.6 kmh 30.52 in1033.5 mb - 0.00 in0.0 mm 0.01 in0.3 mm
11:40 PM 47.8°F8.8°C 46.4°F8.0°C 95% 1.1 mph SW1.8 kmh SW 3.5 mph5.6 kmh 30.52 in1033.5 mb - 0.00 in0.0 mm 0.01 in0.3 mm
11:50 PM 47.6°F8.7°C 46.3°F7.9°C 95% 1.1 mph SW1.8 kmh SW 3.5 mph5.6 kmh 30.52 in1033.5 mb - 0.00 in0.0 mm 0.01 in0.3 mm